Time;durP1;ratioP1;P1;durP2;ratioP2;P2;SDS_P1;SDS_P2;PMS_P1;PMS_P2;Temp;Humidity;BMP_temperature;BMP_pressure;BME280_temperature;BME280_humidity;BME280_pressure;Samples;Min_cycle;Max_cycle;Signal;HPM_P1;HPM_P2
2022/11/20 00:02:02;;;;;;;91.47;42.38;;;;;;;-5.42;73.01;100038.91;2111139;84;31430;-62
2022/11/20 00:05:06;;;;;;;83.67;39.80;;;;;;;-5.46;73.06;100032.80;2110945;84;33892;-61
2022/11/20 00:08:08;;;;;;;85.28;39.30;;;;;;;-5.47;73.09;100034.06;2110972;84;30120;-61
2022/11/20 00:11:14;;;;;;;84.10;39.13;;;;;;;-5.49;73.19;100033.61;2110933;84;28287;-61
2022/11/20 00:14:16;;;;;;;88.45;41.23;;;;;;;-5.49;73.20;100028.84;2112976;84;29801;-62
2022/11/20 00:17:17;;;;;;;84.10;39.67;;;;;;;-5.51;73.17;100024.03;2114341;84;32309;-61
2022/11/20 00:20:19;;;;;;;84.75;39.00;;;;;;;-5.53;73.21;100027.91;2114635;84;34236;-61
2022/11/20 00:23:22;;;;;;;85.05;40.95;;;;;;;-5.55;73.21;100035.28;2083426;84;30308;-62
2022/11/20 00:26:26;;;;;;;98.60;42.70;;;;;;;-5.59;73.27;100031.77;2091647;84;27741;-62
2022/11/20 00:29:28;;;;;;;93.37;43.95;;;;;;;-5.61;73.21;100029.98;2102855;84;28643;-61
2022/11/20 00:32:30;;;;;;;89.37;41.80;;;;;;;-5.64;73.25;100029.52;2079811;84;31412;-62
2022/11/20 00:35:31;;;;;;;86.37;41.13;;;;;;;-5.66;73.29;100032.54;2080359;84;34084;-62
2022/11/20 00:38:33;;;;;;;104.80;47.33;;;;;;;-5.68;73.26;100031.64;2080132;84;29316;-63
2022/11/20 00:41:35;;;;;;;123.15;51.33;;;;;;;-5.69;73.45;100029.89;2080124;84;27696;-63
2022/11/20 00:44:37;;;;;;;129.00;52.60;;;;;;;-5.71;73.65;100032.48;2092363;84;29043;-66
2022/11/20 00:47:39;;;;;;;128.70;56.02;;;;;;;-5.69;73.76;100037.30;2084163;82;32085;-65
2022/11/20 00:50:41;;;;;;;123.72;52.75;;;;;;;-5.69;73.77;100039.91;2098042;84;33822;-62
2022/11/20 00:53:44;;;;;;;125.20;54.00;;;;;;;-5.68;73.73;100041.66;2114664;84;30755;-64
2022/11/20 00:56:45;;;;;;;118.80;52.35;;;;;;;-5.69;73.77;100036.41;2115493;84;27711;-63
2022/11/20 00:59:49;;;;;;;121.97;50.03;;;;;;;-5.68;73.73;100045.99;2116149;84;29028;-62
2022/11/20 01:02:50;;;;;;;125.67;52.35;;;;;;;-5.70;73.79;100047.29;2115825;84;31624;-63
2022/11/20 01:05:52;;;;;;;130.70;53.52;;;;;;;-5.69;73.86;100054.67;2101256;84;34089;-63
2022/11/20 01:08:57;;;;;;;119.55;52.62;;;;;;;-5.69;73.86;100052.95;2068796;86;30428;-64
2022/11/20 01:11:58;;;;;;;;;;;;;;;-5.68;73.96;100053.41;2083152;84;27696;-62
2022/11/20 01:15:00;;;;;;;114.80;50.43;;;;;;;-5.68;74.03;100052.52;2106149;84;29022;-64
2022/11/20 01:18:02;;;;;;;115.28;51.80;;;;;;;-5.68;74.19;100050.80;2102934;84;32130;-64
2022/11/20 01:21:08;;;;;;;115.88;53.23;;;;;;;-5.66;74.25;100048.20;2093582;84;33561;-64
2022/11/20 01:24:16;;;;;;;120.13;50.33;;;;;;;-5.64;74.29;100047.79;2090734;84;28791;-64
2022/11/20 01:27:18;;;;;;;110.00;50.25;;;;;;;-5.61;74.32;100054.77;2103125;84;27691;-63
2022/11/20 01:30:20;;;;;;;118.72;49.67;;;;;;;-5.59;74.37;100053.95;2102846;84;29257;-63
2022/11/20 01:33:21;;;;;;;116.42;50.83;;;;;;;-5.57;74.35;100053.95;2103026;84;31074;-63
2022/11/20 01:36:25;;;;;;;111.03;51.25;;;;;;;-5.55;74.38;100050.94;2076668;84;34252;-66
2022/11/20 01:39:27;;;;;;;107.32;49.50;;;;;;;-5.54;74.42;100047.03;2099808;84;30515;-63
2022/11/20 01:46:00;;;;;;;112.70;51.08;;;;;;;-5.49;74.50;100041.89;2080615;84;29893;-63
2022/11/20 01:49:22;;;;;;;111.05;52.25;;;;;;;-5.47;74.59;100042.78;2102643;84;31285;-62
2022/11/20 01:52:57;;;;;;;112.55;49.45;;;;;;;-5.46;74.61;100042.34;2099661;84;33158;-63
2022/11/20 01:56:01;;;;;;;114.22;49.27;;;;;;;-5.43;74.69;100043.24;2070977;84;30552;-62
2022/11/20 01:59:05;;;;;;;100.85;48.58;;;;;;;-5.40;74.63;100039.81;2090913;84;27593;-64
2022/11/20 02:02:07;;;;;;;112.60;51.92;;;;;;;-5.38;74.70;100030.27;2103120;84;28180;-64
2022/11/20 02:05:28;;;;;;;112.00;49.67;;;;;;;-5.34;74.75;100030.72;2102594;84;33144;-63
2022/11/20 02:08:31;;;;;;;101.27;48.40;;;;;;;-5.31;74.67;100031.20;2087134;84;34015;-64
2022/11/20 02:11:32;;;;;;;111.92;51.20;;;;;;;-5.31;74.59;100035.12;2073871;85;30571;-63
2022/11/20 02:14:34;;;;;;;113.75;47.60;;;;;;;-5.34;74.58;100032.03;2070728;85;28421;-63
2022/11/20 02:17:36;;;;;;;105.60;46.88;;;;;;;-5.35;74.47;100035.08;2067124;86;29123;-63
2022/11/20 02:20:40;;;;;;;109.92;49.42;;;;;;;-5.36;74.48;100031.13;2066760;86;32401;-62
2022/11/20 02:24:09;;;;;;;106.15;47.33;;;;;;;-5.38;74.56;100026.35;2098546;84;33758;-62
2022/11/20 02:27:14;;;;;;;108.80;47.43;;;;;;;-5.39;74.47;100029.82;2102280;84;29332;-62
2022/11/20 02:30:16;;;;;;;77.27;37.08;;;;;;;-5.40;74.65;100034.14;2091232;84;27806;-63
2022/11/20 02:33:17;;;;;;;110.20;49.50;;;;;;;-5.40;74.63;100030.67;2103471;84;29859;-62
2022/11/20 02:36:19;;;;;;;106.22;47.03;;;;;;;-5.41;74.66;100030.23;2095981;84;32488;-62
2022/11/20 02:39:21;;;;;;;101.97;44.95;;;;;;;-5.41;74.74;100038.06;2066941;86;32798;-63
2022/11/20 02:42:22;;;;;;;102.12;47.10;;;;;;;-5.43;74.74;100031.94;2067059;86;29676;-62
2022/11/20 02:45:25;;;;;;;105.15;49.23;;;;;;;-5.43;74.73;100036.72;2066990;86;27699;-61
2022/11/20 02:48:26;;;;;;;100.45;46.63;;;;;;;-5.43;74.70;100034.55;2067248;86;29867;-61
2022/11/20 02:51:28;;;;;;;99.17;42.78;;;;;;;-5.45;74.61;100038.43;2069110;84;31403;-62
2022/11/20 02:54:30;;;;;;;104.23;47.17;;;;;;;-5.48;74.58;100037.12;2098877;84;33780;-62
2022/11/20 02:57:32;;;;;;;97.78;44.70;;;;;;;-5.49;74.63;100037.97;2103827;84;30522;-62
2022/11/20 03:00:35;;;;;;;111.03;46.35;;;;;;;-5.51;74.68;100044.46;2103650;84;27697;-62
2022/11/20 03:03:36;;;;;;;108.78;48.60;;;;;;;-5.53;74.62;100037.48;2103816;84;30053;-62
2022/11/20 03:06:38;;;;;;;102.75;46.05;;;;;;;-5.54;74.58;100033.12;2103901;84;31040;-62
2022/11/20 03:09:39;;;;;;;100.45;45.48;;;;;;;-5.56;74.62;100042.25;2103774;84;34199;-61
2022/11/20 03:12:41;;;;;;;102.53;44.85;;;;;;;-5.58;74.58;100028.30;2103828;84;30501;-63
2022/11/20 03:15:43;;;;;;;100.20;44.18;;;;;;;-5.61;74.55;100035.20;2108981;84;27692;-61
2022/11/20 03:18:45;;;;;;;100.12;43.83;;;;;;;-5.64;74.57;100033.44;2108421;84;28014;-62
2022/11/20 03:21:47;;;;;;;100.72;44.98;;;;;;;-5.65;74.57;100032.98;2114723;84;30911;-62
2022/11/20 03:24:48;;;;;;;93.22;44.18;;;;;;;-5.69;74.53;100029.47;2110852;84;33813;-62
2022/11/20 03:27:52;;;;;;;97.40;44.75;;;;;;;-5.70;74.51;100033.35;2111200;84;30470;-60
2022/11/20 03:30:53;;;;;;;100.40;45.03;;;;;;;-5.74;74.56;100025.06;2111282;84;27627;-61
2022/11/20 03:33:57;;;;;;;98.40;44.00;;;;;;;-5.76;74.66;100026.33;2111239;84;30007;-61
2022/11/20 03:36:59;;;;;;;95.67;42.20;;;;;;;-5.77;74.58;100034.15;2111035;84;32269;-61
2022/11/20 03:40:01;;;;;;;105.80;47.83;;;;;;;-5.80;74.65;100024.13;2110852;84;33886;-61
2022/11/20 03:43:03;;;;;;;106.35;45.88;;;;;;;-5.81;74.56;100030.19;2111026;84;29678;-61
2022/11/20 03:46:07;;;;;;;104.38;46.73;;;;;;;-5.83;74.61;100032.34;2110952;84;27717;-60
2022/11/20 03:49:09;;;;;;;108.27;47.90;;;;;;;-5.87;74.56;100030.10;2111066;84;29112;-61
2022/11/20 03:52:13;;;;;;;109.78;49.48;;;;;;;-5.88;74.69;100034.01;2110832;84;32433;-61
2022/11/20 03:55:14;;;;;;;123.28;53.30;;;;;;;-5.92;74.61;100029.19;2111291;84;33582;-61
2022/11/20 03:58:16;;;;;;;111.42;52.03;;;;;;;-5.94;74.61;100036.11;2110878;84;30293;-61
2022/11/20 04:01:22;;;;;;;113.50;49.35;;;;;;;-5.96;74.62;100031.30;2111231;84;27688;-61
2022/11/20 04:04:24;;;;;;;110.37;49.42;;;;;;;-5.99;74.59;100030.84;2110607;84;29123;-61
2022/11/20 04:07:26;;;;;;;104.65;48.80;;;;;;;-6.02;74.54;100029.53;2110813;84;32221;-62
2022/11/20 04:10:28;;;;;;;114.47;50.70;;;;;;;-6.04;74.55;100035.59;2111142;84;33124;-62
2022/11/20 04:13:29;;;;;;;118.35;53.00;;;;;;;-6.07;74.60;100041.62;2110942;84;30422;-62
2022/11/20 04:16:34;;;;;;;109.90;53.00;;;;;;;-6.09;74.65;100040.72;2096268;84;27722;-62
2022/11/20 04:19:36;;;;;;;125.78;55.52;;;;;;;-6.11;74.64;100038.09;2094588;85;28692;-62
2022/11/20 04:22:38;;;;;;;129.90;53.15;;;;;;;-6.13;74.64;100046.32;2094742;85;32178;-62
2022/11/20 04:25:40;;;;;;;115.62;50.23;;;;;;;-6.14;74.68;100051.53;2094326;85;34152;-62
2022/11/20 04:28:42;;;;;;;112.95;51.68;;;;;;;-6.17;74.70;100052.34;2094263;85;30574;-64
2022/11/20 04:31:44;;;;;;;116.90;53.60;;;;;;;-6.19;74.73;100042.31;2094639;85;27823;-62
2022/11/20 04:34:45;;;;;;;115.15;51.08;;;;;;;-6.20;74.64;100044.91;2094344;85;29723;-62
2022/11/20 04:37:47;;;;;;;108.20;50.45;;;;;;;-6.23;74.66;100041.84;2094739;85;32380;-62
2022/11/20 04:40:49;;;;;;;115.62;52.73;;;;;;;-6.25;74.74;100037.03;2094686;85;33344;-62
2022/11/20 04:44:02;;;;;;;120.80;53.52;;;;;;;-6.27;74.63;100038.30;2086364;85;30561;-62
2022/11/20 04:47:12;;;;;;;130.87;58.28;;;;;;;-6.29;74.67;100033.52;2078718;85;27599;-62
2022/11/20 04:50:29;;;;;;;152.22;64.05;;;;;;;-6.30;74.70;100031.76;2079588;85;29118;-63
2022/11/20 04:53:37;;;;;;;217.18;82.22;;;;;;;-6.32;74.63;100028.66;2079332;85;31062;-62
2022/11/20 04:56:40;;;;;;;233.72;89.17;;;;;;;-6.35;74.69;100022.98;2054238;85;30278;-62
2022/11/20 04:59:42;;;;;;;221.43;85.97;;;;;;;-6.36;74.77;100021.64;2079731;85;29710;-62
2022/11/20 05:02:43;;;;;;;212.32;84.35;;;;;;;-6.38;74.78;100015.12;2079803;85;27733;-62
2022/11/20 05:05:45;;;;;;;171.32;71.72;;;;;;;-6.38;74.86;100019.02;2079471;85;30084;-62
2022/11/20 05:08:47;;;;;;;119.65;54.30;;;;;;;-6.38;74.75;100016.42;2079711;85;30948;-62
2022/11/20 05:11:49;;;;;;;112.17;50.25;;;;;;;-6.42;74.76;100010.70;2079549;85;32939;-62
2022/11/20 05:14:50;;;;;;;116.55;50.67;;;;;;;-6.44;74.88;100008.09;2086111;84;29742;-61
2022/11/20 05:17:52;;;;;;;106.80;48.45;;;;;;;-6.44;75.01;100005.48;2111593;84;27595;-62
2022/11/20 05:20:58;;;;;;;107.30;47.98;;;;;;;-6.43;75.08;100007.65;2110757;84;28729;-62
2022/11/20 05:24:00;;;;;;;99.40;46.98;;;;;;;-6.43;75.20;100001.13;2110791;84;31117;-61
2022/11/20 05:27:02;;;;;;;99.83;45.98;;;;;;;-6.43;75.26;99996.81;2111061;84;33384;-61
2022/11/20 05:30:09;;;;;;;112.15;49.63;;;;;;;-6.43;75.16;99995.92;2110896;84;29766;-62
2022/11/20 05:33:10;;;;;;;108.10;51.88;;;;;;;-6.44;75.05;99994.16;2111136;84;27596;-62
2022/11/20 05:36:13;;;;;;;113.65;51.45;;;;;;;-6.46;75.08;99998.51;2110673;84;29392;-62
2022/11/20 05:39:15;;;;;;;101.85;47.83;;;;;;;-6.47;75.13;99997.61;2110929;84;31088;-62
2022/11/20 05:42:32;;;;;;;104.70;46.30;;;;;;;-6.47;75.23;99996.31;2111163;84;33111;-61
2022/11/20 05:45:34;;;;;;;106.10;47.35;;;;;;;-6.46;75.28;99998.51;2111637;84;29679;-62
2022/11/20 05:48:36;;;;;;;98.70;45.48;;;;;;;-6.46;75.20;99988.95;2111474;84;28310;-63
2022/11/20 05:51:38;;;;;;;97.53;43.80;;;;;;;-6.47;75.17;99994.15;2111573;84;29025;-62
2022/11/20 05:54:39;;;;;;;92.15;44.45;;;;;;;-6.47;75.09;99991.54;2110988;84;31072;-63
2022/11/20 05:57:41;;;;;;;100.75;45.40;;;;;;;-6.50;75.05;99987.58;2111248;84;33338;-62
2022/11/20 06:00:42;;;;;;;103.78;45.80;;;;;;;-6.53;75.07;99991.44;2111206;84;29661;-63
2022/11/20 06:03:47;;;;;;;103.22;47.27;;;;;;;-6.54;75.13;99987.97;2111386;84;27757;-63
2022/11/20 06:06:48;;;;;;;111.33;47.73;;;;;;;-6.54;75.20;99987.08;2111470;84;29857;-63
2022/11/20 06:09:50;;;;;;;105.95;48.58;;;;;;;-6.56;75.21;99984.02;2110941;84;32409;-62
2022/11/20 06:12:51;;;;;;;99.35;45.40;;;;;;;-6.55;75.21;99992.73;2101019;84;33334;-63
2022/11/20 06:15:53;;;;;;;114.97;47.40;;;;;;;-6.54;75.38;99987.08;2071233;85;29359;-62
2022/11/20 06:18:55;;;;;;;111.60;48.08;;;;;;;-6.54;75.47;99987.97;2066748;86;27691;-63
2022/11/20 06:21:56;;;;;;;108.95;47.95;;;;;;;-6.52;75.53;99984.08;2067419;86;29062;-63
2022/11/20 06:24:59;;;;;;;103.10;47.75;;;;;;;-6.50;75.62;99982.38;2067006;86;32059;-63
2022/11/20 06:28:01;;;;;;;113.70;50.48;;;;;;;-6.49;75.68;99981.08;2067119;86;33331;-62
2022/11/20 06:31:03;;;;;;;109.97;47.83;;;;;;;-6.46;75.75;99982.88;2067022;86;29408;-63
2022/11/20 06:34:08;;;;;;;103.92;45.67;;;;;;;-6.44;75.76;99979.42;2066859;86;27694;-63
2022/11/20 06:37:10;;;;;;;113.92;50.28;;;;;;;-6.42;75.80;99979.02;2067628;85;28693;-62
2022/11/20 06:40:13;;;;;;;107.43;47.00;;;;;;;-6.39;75.83;99970.80;2066779;86;31105;-62
2022/11/20 06:43:14;;;;;;;110.30;47.05;;;;;;;-6.37;75.79;99970.40;2067301;84;33348;-63
2022/11/20 06:46:18;;;;;;;128.18;53.13;;;;;;;-6.35;75.82;99975.17;2067055;86;30461;-62
2022/11/20 06:49:19;;;;;;;131.30;56.40;;;;;;;-6.34;75.87;99966.09;2067289;85;27891;-62
2022/11/20 06:52:21;;;;;;;144.22;60.75;;;;;;;-6.31;75.90;99970.05;2067088;85;28687;-63
2022/11/20 06:55:23;;;;;;;155.85;63.87;;;;;;;-6.29;75.93;99973.56;2066613;86;31918;-62
2022/11/20 06:58:27;;;;;;;146.18;61.37;;;;;;;-6.23;76.06;99976.67;2066996;86;33414;-62
2022/11/20 07:01:29;;;;;;;136.50;56.20;;;;;;;-6.19;76.02;99977.14;2066890;85;29553;-62
2022/11/20 07:04:32;;;;;;;132.78;57.62;;;;;;;-6.16;76.09;99981.54;2066745;86;27637;-63
2022/11/20 07:07:34;;;;;;;121.55;54.85;;;;;;;-6.11;76.12;99979.84;2066646;85;29697;-63
2022/11/20 07:10:36;;;;;;;111.95;49.90;;;;;;;-6.04;76.22;99989.51;2066913;85;31497;-63
2022/11/20 07:13:37;;;;;;;117.53;49.73;;;;;;;-5.98;76.25;99981.75;2078582;84;34181;-63
2022/11/20 07:16:39;;;;;;;106.30;46.35;;;;;;;-5.87;76.34;99980.98;2070956;85;29900;-62
2022/11/20 07:19:42;;;;;;;104.38;46.15;;;;;;;-5.78;76.45;99978.47;2074107;85;28281;-63
2022/11/20 07:22:44;;;;;;;111.20;50.03;;;;;;;-5.68;76.46;99972.52;2075992;85;29119;-65
2022/11/20 07:25:45;;;;;;;102.80;50.12;;;;;;;-5.56;76.50;99970.48;2076143;85;32182;-64
2022/11/20 07:28:47;;;;;;;110.10;49.98;;;;;;;-5.43;76.59;99967.55;2038663;87;34202;-63
2022/11/20 07:31:48;;;;;;;106.78;48.10;;;;;;;-5.28;76.72;99961.61;2038363;87;29814;-63
2022/11/20 07:34:52;;;;;;;99.17;45.88;;;;;;;-5.11;76.84;99961.74;2038477;87;27723;-63
2022/11/20 07:37:53;;;;;;;104.38;46.60;;;;;;;-4.94;76.71;99958.40;2038706;87;29728;-64
2022/11/20 07:40:57;;;;;;;119.10;51.53;;;;;;;-4.76;76.89;99966.83;2038299;87;31073;-65
2022/11/20 07:43:59;;;;;;;115.97;51.50;;;;;;;-4.55;76.84;99962.63;2098263;84;34105;-63
2022/11/20 07:47:01;;;;;;;100.12;49.38;;;;;;;-4.37;76.69;99956.62;2110836;84;29751;-63
2022/11/20 07:50:04;;;;;;;109.45;47.95;;;;;;;-4.24;76.48;99953.64;2110788;84;27594;-64
2022/11/20 07:53:06;;;;;;;105.40;48.13;;;;;;;-4.12;76.41;99955.00;2110749;84;30190;-64
2022/11/20 07:56:08;;;;;;;104.83;44.93;;;;;;;-4.01;76.33;99945.45;2110607;84;31508;-63
2022/11/20 07:59:11;;;;;;;98.85;43.55;;;;;;;-3.92;76.11;99939.83;2111237;84;32778;-64
2022/11/20 08:02:13;;;;;;;91.87;43.33;;;;;;;-3.80;76.06;99936.39;2111123;84;30155;-63
2022/11/20 08:05:14;;;;;;;89.72;41.88;;;;;;;-3.73;75.86;99935.52;2111230;84;27823;-63
2022/11/20 08:08:16;;;;;;;84.42;42.23;;;;;;;-3.64;75.87;99938.59;2110782;84;29302;-64
2022/11/20 08:14:38;;;;;;;89.13;41.60;;;;;;;-3.50;75.75;99940.80;2082605;84;34149;-62
2022/11/20 08:17:40;;;;;;;85.07;40.90;;;;;;;-3.41;75.52;99938.64;2073923;85;30762;-63
2022/11/20 08:20:41;;;;;;;86.15;40.35;;;;;;;-3.35;75.60;99930.80;2074127;85;27693;-62
2022/11/20 08:23:43;;;;;;;82.67;40.17;;;;;;;-3.24;75.65;99929.05;2074201;85;29502;-63
2022/11/20 08:26:44;;;;;;;82.50;41.40;;;;;;;-3.10;75.66;99929.06;2074217;85;32176;-63
2022/11/20 08:29:46;;;;;;;80.55;38.80;;;;;;;-2.96;75.92;99930.36;2074275;85;34332;-62
2022/11/20 08:32:48;;;;;;;78.02;37.50;;;;;;;-2.81;75.74;99932.56;2047232;85;30536;-62
2022/11/20 08:35:49;;;;;;;76.92;38.35;;;;;;;-2.67;75.62;99920.72;2073995;85;27652;-63
2022/11/20 08:38:54;;;;;;;74.82;36.38;;;;;;;-2.56;75.50;99921.56;2073912;85;29108;-63
2022/11/20 08:41:56;;;;;;;75.17;36.75;;;;;;;-2.46;75.45;99918.06;2074457;84;31025;-63
2022/11/20 08:44:57;;;;;;;75.50;36.28;;;;;;;-2.32;75.48;99908.85;2073851;85;33289;-63
2022/11/20 08:48:03;;;;;;;76.05;37.45;;;;;;;-2.22;75.18;99911.42;2073928;85;30628;-63
2022/11/20 08:51:05;;;;;;;67.05;36.40;;;;;;;-2.17;74.89;99907.91;2074015;85;28186;-63
2022/11/20 08:54:07;;;;;;;75.45;38.48;;;;;;;-2.07;74.89;99910.05;2074092;85;29051;-63
2022/11/20 08:57:09;;;;;;;79.22;36.23;;;;;;;-1.99;74.43;99911.33;2074117;85;31375;-63
2022/11/20 09:00:12;;;;;;;66.65;34.55;;;;;;;-1.90;74.65;99911.72;2074168;85;33682;-63
2022/11/20 09:03:14;;;;;;;67.90;35.63;;;;;;;-1.80;74.47;99900.73;2074043;85;29497;-64
2022/11/20 09:06:16;;;;;;;100.18;47.98;;;;;;;-1.71;74.46;99896.31;2074298;85;28280;-64
2022/11/20 09:09:20;;;;;;;68.75;36.50;;;;;;;-1.60;74.46;99897.98;2074040;85;28842;-64
2022/11/20 09:12:22;;;;;;;73.72;35.35;;;;;;;-1.51;74.37;99898.37;2074370;84;31046;-64
2022/11/20 09:15:25;;;;;;;66.00;33.33;;;;;;;-1.42;74.16;99894.37;2074009;85;34163;-64
2022/11/20 09:18:28;;;;;;;70.50;34.08;;;;;;;-1.34;73.99;99893.01;2067439;84;29763;-64
2022/11/20 09:21:30;;;;;;;58.17;32.73;;;;;;;-1.34;73.37;99888.61;2066923;86;27489;-64
2022/11/20 09:24:31;;;;;;;65.75;32.70;;;;;;;-1.26;73.77;99888.55;2066747;85;30063;-64
2022/11/20 09:27:33;;;;;;;73.20;35.95;;;;;;;-1.16;73.64;99879.73;2066839;85;32250;-64
2022/11/20 09:30:35;;;;;;;73.12;35.35;;;;;;;-1.08;73.58;99883.60;2066813;85;33030;-64
2022/11/20 09:33:37;;;;;;;70.80;35.95;;;;;;;-1.00;73.35;99877.81;2067255;85;29770;-65
2022/11/20 09:36:39;;;;;;;68.52;33.65;;;;;;;-0.93;73.32;99871.63;2067062;86;27692;-64
2022/11/20 09:39:40;;;;;;;71.07;34.83;;;;;;;-0.84;73.32;99872.41;2067498;85;29071;-64
2022/11/20 09:43:09;;;;;;;56.25;30.97;;;;;;;-0.78;73.13;99872.36;2066914;84;32495;-63
2022/11/20 09:46:29;;;;;;;57.80;29.90;;;;;;;-0.71;72.77;99862.64;2067286;86;33038;-63
2022/11/20 09:49:59;;;;;;;61.90;33.13;;;;;;;-0.67;72.27;99866.99;2066883;85;29959;-63
2022/11/20 09:53:24;;;;;;;66.72;34.27;;;;;;;-0.67;72.37;99865.68;2071072;84;27674;-62
2022/11/20 09:56:27;;;;;;;52.08;28.87;;;;;;;-0.64;72.48;99852.04;2066772;85;29644;-62
2022/11/20 09:59:44;;;;;;;55.85;29.65;;;;;;;-0.59;71.93;99846.72;2066816;86;31375;-62
2022/11/20 10:03:06;;;;;;;53.23;28.07;;;;;;;-0.60;71.75;99842.34;2066948;86;33839;-62
2022/11/20 10:06:12;;;;;;;54.35;29.77;;;;;;;-0.56;71.88;99848.00;1997279;89;29405;-62
2022/11/20 10:09:34;;;;;;;55.58;30.43;;;;;;;-0.50;71.98;99834.80;1998093;89;27842;-63
2022/11/20 10:13:02;;;;;;;58.28;30.52;;;;;;;-0.43;71.93;99843.48;1997933;89;28821;-63
2022/11/20 10:16:30;;;;;;;67.85;34.98;;;;;;;-0.39;71.75;99844.30;2017196;87;31124;-64
2022/11/20 10:19:49;;;;;;;57.67;29.67;;;;;;;-0.34;71.76;99831.97;2012927;88;33004;-62
2022/11/20 10:23:19;;;;;;;54.95;29.92;;;;;;;-0.27;71.95;99828.35;2039386;87;29259;-63
2022/11/20 10:26:38;;;;;;;45.35;26.40;;;;;;;-0.21;71.68;99831.34;2033488;87;27741;-63
2022/11/20 10:29:43;;;;;;;49.03;25.68;;;;;;;-0.14;71.64;99825.13;2033023;87;29961;-64
2022/11/20 10:33:10;;;;;;;49.38;26.73;;;;;;;-0.08;71.47;99817.58;2033345;87;31083;-64
2022/11/20 10:36:26;;;;;;;47.13;25.10;;;;;;;-0.01;71.15;99808.72;1973251;90;33610;-64
2022/11/20 10:39:36;;;;;;;;;;;;;;;0.04;70.30;99803.37;1976101;90;28924;-64
2022/11/20 10:42:45;;;;;;;50.17;27.30;;;;;;;0.06;70.50;99803.77;1979862;89;27595;-64
2022/11/20 10:46:04;;;;;;;49.48;25.12;;;;;;;0.11;70.74;99803.27;1989308;89;28810;-64
2022/11/20 10:49:12;;;;;;;46.02;27.27;;;;;;;0.17;70.63;99810.66;1975293;90;31143;-63
2022/11/20 10:52:39;;;;;;;49.05;27.45;;;;;;;0.21;70.27;99797.41;1974586;90;33399;-63
2022/11/20 10:55:54;;;;;;;51.83;27.20;;;;;;;0.23;70.24;99796.95;1987815;89;30429;-64
2022/11/20 10:59:34;;;;;;;51.73;26.65;;;;;;;0.29;70.40;99798.61;1967728;90;27808;-64
2022/11/20 11:02:51;;;;;;;46.33;25.68;;;;;;;0.34;69.83;99798.53;1989405;89;29714;-63
2022/11/20 11:06:22;;;;;;;49.67;27.73;;;;;;;0.35;69.73;99790.59;1977052;85;31844;-63
2022/11/20 11:09:29;;;;;;;51.20;28.87;;;;;;;0.35;69.99;99782.69;2110873;84;34177;-64
2022/11/20 11:12:31;;;;;;;48.20;27.35;;;;;;;0.40;70.06;99778.69;2110575;84;29390;-63
2022/11/20 11:15:41;;;;;;;52.15;27.15;;;;;;;0.43;69.96;99775.97;2074797;85;27611;-64
2022/11/20 11:18:42;;;;;;;48.98;26.10;;;;;;;0.45;69.63;99776.82;2061300;85;28917;-64
2022/11/20 11:21:53;;;;;;;49.67;27.55;;;;;;;0.47;69.68;99773.72;2058087;86;31129;-64
2022/11/20 11:24:55;;;;;;;51.70;28.23;;;;;;;0.49;69.57;99772.39;2053099;86;33367;-63
2022/11/20 11:28:01;;;;;;;42.48;24.60;;;;;;;0.52;69.35;99771.00;2103318;84;27736;-63
2022/11/20 11:31:03;;;;;;;39.90;20.95;;;;;;;0.55;69.36;99770.52;2103788;84;27728;-64
2022/11/20 11:34:07;;;;;;;37.23;21.57;;;;;;;0.59;68.87;99768.23;2103738;84;29898;-62
2022/11/20 11:37:21;;;;;;;41.30;23.10;;;;;;;0.62;69.02;99762.48;2103577;84;31072;-65
2022/11/20 11:40:23;;;;;;;30.75;18.62;;;;;;;0.64;68.76;99750.16;2103903;84;33823;-63
2022/11/20 11:46:53;;;;;;;35.00;20.52;;;;;;;0.73;68.19;99732.41;2103484;84;27667;-68
2022/11/20 11:50:15;;;;;;;36.68;20.75;;;;;;;0.83;68.10;99729.61;2103457;84;28712;-69
2022/11/20 11:53:20;;;;;;;40.95;23.70;;;;;;;0.92;67.92;99736.02;2103450;84;31245;-67
2022/11/20 11:56:22;;;;;;;43.83;23.57;;;;;;;0.97;68.17;99730.65;2103749;84;33788;-68
2022/11/20 11:59:33;;;;;;;44.18;24.52;;;;;;;1.02;68.01;99728.33;2078949;84;29452;-70
2022/11/20 12:03:10;;;;;;;40.83;23.55;;;;;;;1.08;67.96;99722.53;2101452;84;27581;-66
2022/11/20 12:06:15;;;;;;;44.38;24.90;;;;;;;1.12;68.02;99721.11;2067438;85;28661;-65
2022/11/20 12:09:20;;;;;;;41.55;23.67;;;;;;;1.18;67.71;99722.31;2067826;85;31558;-63
2022/11/20 12:12:41;;;;;;;39.03;22.17;;;;;;;1.22;67.60;99720.47;2067755;86;33143;-65
2022/11/20 12:15:46;;;;;;;40.73;23.32;;;;;;;1.24;67.30;99710.76;2067695;86;29881;-67
2022/11/20 12:18:52;;;;;;;38.95;21.45;;;;;;;1.25;67.22;99708.55;2068076;86;27801;-67
2022/11/20 12:22:24;;;;;;;40.98;22.13;;;;;;;1.16;66.78;99689.81;2052910;86;30140;-66
2022/11/20 12:25:32;;;;;;;45.73;23.85;;;;;;;1.26;66.70;99695.77;2033258;87;30482;-66
2022/11/20 12:29:15;;;;;;;41.18;23.62;;;;;;;1.29;66.88;99704.06;2032926;87;32799;-66
2022/11/20 12:32:34;;;;;;;41.40;24.07;;;;;;;1.33;66.87;99700.46;2033574;87;30460;-66
2022/11/20 12:36:08;;;;;;;37.93;21.42;;;;;;;1.37;66.91;99695.55;2033090;87;27752;-68
2022/11/20 12:39:18;;;;;;;41.00;21.95;;;;;;;1.39;66.91;99700.34;2033275;87;28698;-66
2022/11/20 12:46:38;;;;;;;42.25;21.45;;;;;;;1.48;66.84;99692.67;2052852;86;33577;-66
2022/11/20 12:50:02;;;;;;;39.65;21.20;;;;;;;1.53;66.85;99701.34;2026514;86;30146;-68
2022/11/20 12:53:43;;;;;;;38.20;20.82;;;;;;;1.55;66.62;99701.32;1995933;89;27791;-68
2022/11/20 12:56:55;;;;;;;45.73;21.12;;;;;;;1.55;66.27;99692.08;1995897;89;28741;-68
2022/11/20 13:00:21;;;;;;;39.13;21.33;;;;;;;1.54;66.23;99688.56;1996135;87;31601;-72
2022/11/20 13:03:43;;;;;;;35.58;20.30;;;;;;;1.55;66.38;99678.42;1996151;89;32981;-68
2022/11/20 13:06:45;;;;;;;34.63;20.60;;;;;;;1.55;66.22;99672.28;1995340;89;29774;-69
2022/11/20 13:09:50;;;;;;;40.48;23.73;;;;;;;1.55;66.21;99680.20;1996209;89;27693;-70
2022/11/20 13:13:02;;;;;;;35.25;20.97;;;;;;;1.56;66.18;99668.74;2010510;86;31532;-72
2022/11/20 13:16:09;;;;;;;36.88;19.70;;;;;;;1.56;66.28;99666.95;2002364;88;31062;-69
2022/11/20 13:19:13;;;;;;;31.70;18.75;;;;;;;1.55;66.22;99665.69;2024569;85;33898;-70
2022/11/20 13:22:37;;;;;;;33.87;20.23;;;;;;;1.53;65.87;99658.25;2104955;84;30158;-72
2022/11/20 13:25:41;;;;;;;36.58;21.12;;;;;;;1.53;66.11;99655.14;2111004;84;27666;-73
2022/11/20 13:28:42;;;;;;;31.65;18.65;;;;;;;1.51;66.15;99645.95;2072177;85;29635;-69
2022/11/20 13:31:47;;;;;;;31.80;19.10;;;;;;;1.51;65.93;99634.08;2072452;85;32188;-72
2022/11/20 13:35:14;;;;;;;31.37;20.00;;;;;;;1.51;65.96;99633.19;2045139;85;33223;-72
2022/11/20 13:38:16;;;;;;;37.88;22.05;;;;;;;1.49;65.94;99626.64;2098465;84;29563;-73
2022/11/20 13:41:34;;;;;;;42.23;24.30;;;;;;;1.49;66.06;99637.20;2130549;83;28364;-70
2022/11/20 13:45:00;;;;;;;43.90;22.87;;;;;;;1.47;66.08;99628.44;2133264;83;29712;-67
2022/11/20 13:48:24;;;;;;;34.43;20.45;;;;;;;1.47;65.82;99640.32;2114806;84;31119;-68
2022/11/20 13:51:46;;;;;;;35.08;19.20;;;;;;;1.44;65.81;99633.78;2133652;83;33441;-67
2022/11/20 13:55:26;;;;;;;31.15;16.52;;;;;;;1.43;65.85;99624.59;2131890;83;30627;-68
2022/11/20 13:58:50;;;;;;;31.27;17.02;;;;;;;1.39;65.65;99627.77;2130770;83;27565;-68
2022/11/20 14:01:53;;;;;;;27.95;16.37;;;;;;;1.37;65.54;99625.61;2086100;85;29581;-67
2022/11/20 14:04:58;;;;;;;30.85;17.20;;;;;;;1.32;65.46;99621.77;2070855;85;31070;-68
2022/11/20 14:07:59;;;;;;;29.60;16.40;;;;;;;1.30;65.37;99620.92;2070536;85;33358;-64
2022/11/20 14:11:20;;;;;;;39.40;19.30;;;;;;;1.28;65.35;99615.25;2070487;85;29831;-66
2022/11/20 14:14:25;;;;;;;30.68;16.17;;;;;;;1.27;65.12;99613.50;2063630;86;28277;-66
2022/11/20 14:17:33;;;;;;;26.97;15.05;;;;;;;1.22;65.08;99605.70;2064164;86;28706;-68
2022/11/20 14:20:35;;;;;;;28.23;15.93;;;;;;;1.18;65.12;99611.52;2104899;84;31146;-69
2022/11/20 14:23:36;;;;;;;29.85;16.17;;;;;;;1.14;64.94;99611.16;2109618;84;33331;-69
2022/11/20 14:26:44;;;;;;;32.55;18.25;;;;;;;1.10;64.85;99603.34;2109485;84;29739;-70